Time,TemperatureF,DewpointF,PressureIn,WindDirection,WindDirectionDegrees,WindSpeedMPH,WindSpeedGustMPH,Humidity,HourlyPrecipIn,Conditions,Clouds,dailyrainin,SoftwareType,DateUTC
2013-08-09 09:52:00,74.1,44.0,30.15,West,279,6.3,6.3,34,0.00,,---,0.00,VWS V14.01,2013-08-09 15:52:00,
2013-08-09 09:53:00,74.1,44.0,30.15,West,273,3.6,6.3,34,0.00,,---,0.00,VWS V14.01,2013-08-09 15:53:00,
2013-08-09 09:54:00,74.3,44.1,30.15,SW,225,8.3,8.3,34,0.00,,---,0.00,VWS V14.01,2013-08-09 15:54:00,
2013-08-09 09:55:00,74.3,44.1,30.15,WSW,257,5.8,8.3,34,0.00,,---,0.00,VWS V14.01,2013-08-09 15:55:00,
2013-08-09 09:59:00,74.3,43.4,30.15,WSW,240,3.6,7.6,33,0.00,,---,0.00,VWS V14.01,2013-08-09 15:59:00,
2013-08-09 10:04:00,74.5,43.5,30.18,WSW,246,0.0,0.0,33,0.00,,---,0.00,VWS V14.01,2013-08-09 16:04:00,
2013-08-09 10:10:00,74.7,44.5,30.18,WNW,291,3.1,5.8,34,0.00,,---,0.00,VWS V14.01,2013-08-09 16:10:00,
2013-08-09 10:15:00,75.2,44.9,30.18,SSW,198,6.7,6.7,34,0.00,,---,0.00,VWS V14.01,2013-08-09 16:15:00,
2013-08-09 10:21:00,76.3,45.1,30.18,SSE,167,4.9,6.3,33,0.00,,---,0.00,VWS V14.01,2013-08-09 16:21:00,
2013-08-09 10:26:00,77.2,45.1,30.18,SSE,163,8.1,8.7,32,0.00,,---,0.00,VWS V14.01,2013-08-09 16:26:00,
2013-08-09 10:31:00,77.2,43.4,30.18,WSW,239,0.0,5.4,30,0.00,,---,0.00,VWS V14.01,2013-08-09 16:31:00,
2013-08-09 10:36:00,76.6,43.8,30.18,South,191,6.7,7.2,31,0.00,,---,0.00,VWS V14.01,2013-08-09 16:36:00,
2013-08-09 10:42:00,76.6,43.8,30.18,South,172,5.4,6.3,31,0.00,,---,0.00,VWS V14.01,2013-08-09 16:42:00,
2013-08-09 10:47:00,77.2,43.4,30.18,South,169,2.7,3.6,30,0.00,,---,0.00,VWS V14.01,2013-08-09 16:47:00,
2013-08-09 10:53:00,77.7,43.8,30.18,South,169,0.0,0.0,30,0.00,,---,0.00,VWS V14.01,2013-08-09 16:53:00,
2013-08-09 10:58:00,78.1,45.0,30.18,SSW,199,0.0,2.7,31,0.00,,---,0.00,VWS V14.01,2013-08-09 16:58:00,
2013-08-09 11:04:00,78.3,43.4,30.15,SW,235,0.0,0.0,29,0.00,,---,0.00,VWS V14.01,2013-08-09 17:04:00,
2013-08-09 11:09:00,77.7,43.8,30.15,SSW,207,4.9,4.9,30,0.00,,---,0.00,VWS V14.01,2013-08-09 17:09:00,
2013-08-09 11:14:00,77.7,43.8,30.15,SSW,203,5.4,5.4,30,0.00,,---,0.00,VWS V14.01,2013-08-09 17:14:00,
2013-08-09 11:19:00,77.7,43.0,30.18,SSW,206,2.2,4.0,29,0.00,,---,0.00,VWS V14.01,2013-08-09 17:19:00,
2013-08-09 11:25:00,78.3,44.3,30.18,East,84,2.7,5.4,30,0.00,,---,0.00,VWS V14.01,2013-08-09 17:25:00,
2013-08-09 11:31:00,79.3,45.2,30.18,SSW,193,4.0,5.4,30,0.00,,---,0.00,VWS V14.01,2013-08-09 17:31:00,
2013-08-09 11:36:00,80.1,45.0,30.18,SSE,167,0.0,3.6,29,0.00,,---,0.00,VWS V14.01,2013-08-09 17:36:00,
2013-08-09 11:42:00,80.6,43.6,30.18,South,188,4.0,5.4,27,0.00,,---,0.00,VWS V14.01,2013-08-09 17:42:00,
2013-08-09 11:47:00,80.2,41.3,30.18,WSW,237,7.6,11.0,25,0.00,,---,0.00,VWS V14.01,2013-08-09 17:47:00,
2013-08-09 11:53:00,79.7,40.8,30.18,SSW,193,0.0,7.6,25,0.00,,---,0.00,VWS V14.01,2013-08-09 17:53:00,
2013-08-09 11:59:00,80.2,41.3,30.18,West,260,2.7,8.1,25,0.00,,---,0.00,VWS V14.01,2013-08-09 17:59:00,
2013-08-09 12:04:00,80.1,41.1,30.18,South,181,8.7,8.7,25,0.00,,---,0.00,VWS V14.01,2013-08-09 18:04:00,
2013-08-09 12:10:00,80.1,41.1,30.18,WSW,238,7.6,8.7,25,0.00,,---,0.00,VWS V14.01,2013-08-09 18:10:00,
2013-08-09 12:16:00,81.1,42.0,30.18,SSW,193,5.8,12.3,25,0.00,,---,0.00,VWS V14.01,2013-08-09 18:16:00,
2013-08-09 12:21:00,82.0,41.7,30.18,South,184,8.1,11.0,24,0.00,,---,0.00,VWS V14.01,2013-08-09 18:21:00,
2013-08-09 12:27:00,82.8,41.2,30.18,SSE,156,8.7,10.5,23,0.00,,---,0.00,VWS V14.01,2013-08-09 18:27:00,
2013-08-09 12:32:00,82.9,41.4,30.18,South,178,8.7,9.2,23,0.00,,---,0.00,VWS V14.01,2013-08-09 18:32:00,
2013-08-09 12:38:00,82.9,39.0,30.18,SSE,159,11.0,11.0,21,0.00,,---,0.00,VWS V14.01,2013-08-09 18:38:00,
2013-08-09 12:43:00,82.6,38.7,30.18,SSE,159,11.0,11.0,21,0.00,,---,0.00,VWS V14.01,2013-08-09 18:43:00,
2013-08-09 12:49:00,82.4,38.6,30.18,SSE,167,5.4,5.8,21,0.00,,---,0.00,VWS V14.01,2013-08-09 18:49:00,
2013-08-09 12:55:00,82.0,38.3,30.18,SSW,197,5.8,8.1,21,0.00,,---,0.00,VWS V14.01,2013-08-09 18:55:00,
2013-08-09 13:00:00,81.5,39.0,30.18,SSE,154,6.3,6.3,22,0.00,,---,0.00,VWS V14.01,2013-08-09 19:00:00,
2013-08-09 13:05:00,81.9,39.3,30.18,SSE,154,6.3,6.3,22,0.00,,---,0.00,VWS V14.01,2013-08-09 19:05:00,
2013-08-09 13:10:00,82.4,39.8,30.18,SSE,160,3.1,3.1,22,0.00,,---,0.00,VWS V14.01,2013-08-09 19:10:00,
2013-08-09 13:15:00,82.6,39.9,30.18,SSE,165,5.8,7.2,22,0.00,,---,0.00,VWS V14.01,2013-08-09 19:15:00,
2013-08-09 13:20:00,82.6,39.9,30.18,South,187,8.3,10.5,22,0.00,,---,0.00,VWS V14.01,2013-08-09 19:20:00,
2013-08-09 13:26:00,82.6,38.7,30.18,SSE,163,8.7,8.7,21,0.00,,---,0.00,VWS V14.01,2013-08-09 19:26:00,
2013-08-09 13:31:00,82.8,38.9,30.18,SSE,163,10.5,10.5,21,0.00,,---,0.00,VWS V14.01,2013-08-09 19:31:00,
2013-08-09 13:37:00,82.8,38.9,30.18,SSW,201,8.3,8.3,21,0.00,,---,0.00,VWS V14.01,2013-08-09 19:37:00,
2013-08-09 13:42:00,82.6,38.7,30.18,South,176,8.1,8.1,21,0.00,,---,0.00,VWS V14.01,2013-08-09 19:42:00,
2013-08-09 13:48:00,82.6,38.7,30.18,South,185,7.6,8.1,21,0.00,,---,0.00,VWS V14.01,2013-08-09 19:48:00,
2013-08-09 13:53:00,81.3,37.7,30.18,South,173,8.1,8.1,21,0.00,,---,0.00,VWS V14.01,2013-08-09 19:53:00,
2013-08-09 13:59:00,81.3,37.7,30.18,South,180,9.6,9.6,21,0.00,,---,0.00,VWS V14.01,2013-08-09 19:59:00,
2013-08-09 14:05:00,81.7,38.0,30.15,South,171,7.6,10.1,21,0.00,,---,0.00,VWS V14.01,2013-08-09 20:05:00,
2013-08-09 14:10:00,82.0,38.3,30.15,South,172,8.3,8.3,21,0.00,,---,0.00,VWS V14.01,2013-08-09 20:10:00,
2013-08-09 14:16:00,82.4,37.3,30.15,South,179,6.3,8.3,20,0.00,,---,0.00,VWS V14.01,2013-08-09 20:16:00,
2013-08-09 14:21:00,82.8,37.6,30.18,South,179,6.3,6.3,20,0.00,,---,0.00,VWS V14.01,2013-08-09 20:21:00,
2013-08-09 14:26:00,83.1,37.9,30.18,South,179,6.3,6.3,20,0.00,,---,0.00,VWS V14.01,2013-08-09 20:26:00,
2013-08-09 14:31:00,83.1,36.6,30.18,SSE,168,11.0,11.0,19,0.00,,---,0.00,VWS V14.01,2013-08-09 20:31:00,
2013-08-09 14:37:00,83.1,36.6,30.15,South,170,9.2,9.2,19,0.00,,---,0.00,VWS V14.01,2013-08-09 20:37:00,
2013-08-09 14:43:00,82.9,36.5,30.15,SSE,160,8.1,8.1,19,0.00,,---,0.00,VWS V14.01,2013-08-09 20:43:00,
2013-08-09 14:48:00,83.1,36.6,30.15,SE,133,6.7,6.7,19,0.00,,---,0.00,VWS V14.01,2013-08-09 20:48:00,
2013-08-09 14:54:00,83.5,29.3,30.15,South,176,6.3,6.3,14,0.00,,---,0.00,VWS V14.01,2013-08-09 20:54:00,
2013-08-09 15:00:00,83.5,29.3,30.15,SSE,161,8.1,8.1,14,0.00,,---,0.00,VWS V14.01,2013-08-09 21:00:00,
2013-08-09 15:05:00,83.5,32.6,30.15,SSW,195,7.6,8.1,16,0.00,,---,0.00,VWS V14.01,2013-08-09 21:05:00,
2013-08-09 15:11:00,83.7,32.8,30.15,South,178,6.7,6.7,16,0.00,,---,0.00,VWS V14.01,2013-08-09 21:11:00,
2013-08-09 15:16:00,83.7,32.8,30.15,South,181,7.6,7.6,16,0.00,,---,0.00,VWS V14.01,2013-08-09 21:16:00,
2013-08-09 15:22:00,83.1,32.3,30.15,SSW,200,3.1,10.1,16,0.00,,---,0.00,VWS V14.01,2013-08-09 21:22:00,
2013-08-09 15:28:00,82.6,31.9,30.15,South,186,8.3,8.3,16,0.00,,---,0.00,VWS V14.01,2013-08-09 21:28:00,
2013-08-09 15:33:00,82.2,33.1,30.15,SSW,193,8.1,11.9,17,0.00,,---,0.00,VWS V14.01,2013-08-09 21:33:00,
2013-08-09 15:39:00,82.2,33.1,30.15,SSE,167,8.1,8.1,17,0.00,,---,0.00,VWS V14.01,2013-08-09 21:39:00,
2013-08-09 15:44:00,82.9,32.2,30.15,SSE,159,6.3,6.3,16,0.00,,---,0.00,VWS V14.01,2013-08-09 21:44:00,
2013-08-09 15:50:00,82.8,36.3,30.15,SSE,151,7.6,7.6,19,0.00,,---,0.00,VWS V14.01,2013-08-09 21:50:00,
2013-08-09 15:55:00,82.9,36.5,30.15,South,181,6.3,6.3,19,0.00,,---,0.00,VWS V14.01,2013-08-09 21:55:00,
2013-08-09 16:01:00,82.9,36.5,30.15,SSE,163,8.7,11.0,19,0.00,,---,0.00,VWS V14.01,2013-08-09 22:01:00,
2013-08-09 16:06:00,82.9,36.5,30.15,South,180,5.4,5.4,19,0.00,,---,0.00,VWS V14.01,2013-08-09 22:06:00,
2013-08-09 16:11:00,83.1,36.6,30.15,SSW,200,6.3,6.3,19,0.00,,---,0.00,VWS V14.01,2013-08-09 22:11:00,
2013-08-09 16:17:00,83.1,36.6,30.15,SSE,162,8.1,8.1,19,0.00,,---,0.00,VWS V14.01,2013-08-09 22:17:00,
2013-08-09 16:22:00,82.8,36.3,30.15,SSE,165,7.6,8.1,19,0.00,,---,0.00,VWS V14.01,2013-08-09 22:22:00,
2013-08-09 16:28:00,82.2,37.2,30.15,SSE,148,8.1,8.1,20,0.00,,---,0.00,VWS V14.01,2013-08-09 22:28:00,
2013-08-09 16:33:00,82.2,37.2,30.15,SSE,158,7.6,7.6,20,0.00,,---,0.00,VWS V14.01,2013-08-09 22:33:00,
2013-08-09 16:38:00,82.0,37.0,30.15,SSE,149,8.1,8.1,20,0.00,,---,0.00,VWS V14.01,2013-08-09 22:38:00,
2013-08-09 16:43:00,82.2,37.2,30.15,South,181,7.6,7.6,20,0.00,,---,0.00,VWS V14.01,2013-08-09 22:43:00,
2013-08-09 16:49:00,82.9,37.8,30.15,SE,128,7.6,7.6,20,0.00,,---,0.00,VWS V14.01,2013-08-09 22:49:00,
2013-08-09 16:54:00,82.9,37.8,30.15,South,170,7.6,7.6,20,0.00,,---,0.00,VWS V14.01,2013-08-09 22:54:00,
2013-08-09 17:00:00,82.9,37.8,30.15,South,181,8.1,8.1,20,0.00,,---,0.00,VWS V14.01,2013-08-09 23:00:00,
2013-08-09 17:06:00,83.1,37.9,30.15,SSE,152,5.4,11.0,20,0.00,,---,0.00,VWS V14.01,2013-08-09 23:06:00,
2013-08-09 17:12:00,83.5,38.2,30.15,SE,133,11.9,11.9,20,0.00,,---,0.00,VWS V14.01,2013-08-09 23:12:00,
2013-08-09 17:18:00,83.5,38.2,30.15,SE,142,9.2,10.1,20,0.00,,---,0.00,VWS V14.01,2013-08-09 23:18:00,
2013-08-09 17:24:00,83.1,37.9,30.15,SE,139,6.7,6.7,20,0.00,,---,0.00,VWS V14.01,2013-08-09 23:24:00,
2013-08-09 17:29:00,83.1,37.9,30.15,SSE,153,8.7,10.1,20,0.00,,---,0.00,VWS V14.01,2013-08-09 23:29:00,
2013-08-09 17:34:00,83.1,37.9,30.15,SSE,158,5.4,8.7,20,0.00,,---,0.00,VWS V14.01,2013-08-09 23:34:00,
2013-08-09 17:39:00,83.5,38.2,30.15,SSE,150,6.3,6.3,20,0.00,,---,0.00,VWS V14.01,2013-08-09 23:39:00,
2013-08-09 17:45:00,83.7,37.1,30.15,South,169,8.7,8.7,19,0.00,,---,0.00,VWS V14.01,2013-08-09 23:45:00,
2013-08-09 17:50:00,83.5,36.9,30.15,SSE,147,8.7,8.7,19,0.00,,---,0.00,VWS V14.01,2013-08-09 23:50:00,
2013-08-09 17:56:00,83.5,36.9,30.15,SSE,161,7.6,7.6,19,0.00,,---,0.00,VWS V14.01,2013-08-09 23:56:00,
2013-08-09 18:01:00,82.9,36.5,30.15,SSE,162,8.1,8.1,19,0.00,,---,0.00,VWS V14.01,2013-08-10 00:01:00,
2013-08-09 18:07:00,82.6,36.2,30.15,South,172,6.3,6.3,19,0.00,,---,0.00,VWS V14.01,2013-08-10 00:07:00,
2013-08-09 18:12:00,83.1,36.6,30.15,South,172,6.3,6.3,19,0.00,,---,0.00,VWS V14.01,2013-08-10 00:12:00,
2013-08-09 18:17:00,83.1,36.6,30.15,SSE,162,8.7,8.7,19,0.00,,---,0.00,VWS V14.01,2013-08-10 00:17:00,
2013-08-09 18:23:00,83.1,36.6,30.15,SSE,151,8.1,8.1,19,0.00,,---,0.00,VWS V14.01,2013-08-10 00:23:00,
2013-08-09 18:28:00,84.2,37.5,30.15,SSE,156,8.7,8.7,19,0.00,,---,0.00,VWS V14.01,2013-08-10 00:28:00,
2013-08-09 18:34:00,84.2,37.5,30.15,SSE,156,8.7,8.7,19,0.00,,---,0.00,VWS V14.01,2013-08-10 00:34:00,
2013-08-09 18:39:00,84.2,37.5,30.15,SSE,155,8.7,8.7,19,0.00,,---,0.00,VWS V14.01,2013-08-10 00:39:00,
2013-08-09 18:45:00,84.2,37.5,30.15,SE,144,7.6,7.6,19,0.00,,---,0.00,VWS V14.01,2013-08-10 00:45:00,
2013-08-09 18:50:00,84.2,37.5,30.15,SSE,158,8.7,8.7,19,0.00,,---,0.00,VWS V14.01,2013-08-10 00:50:00,
2013-08-09 18:56:00,83.7,37.1,30.15,SSE,151,8.1,10.1,19,0.00,,---,0.00,VWS V14.01,2013-08-10 00:56:00,
2013-08-09 19:02:00,83.3,36.8,30.15,SE,136,8.3,8.3,19,0.00,,---,0.00,VWS V14.01,2013-08-10 01:02:00,
2013-08-09 19:07:00,83.1,36.6,30.15,SSE,159,11.0,11.0,19,0.00,,---,0.00,VWS V14.01,2013-08-10 01:07:00,
2013-08-09 19:13:00,82.6,36.2,30.15,SE,146,8.3,8.3,19,0.00,,---,0.00,VWS V14.01,2013-08-10 01:13:00,
2013-08-09 19:19:00,82.6,36.2,30.15,SE,139,8.3,8.3,19,0.00,,---,0.00,VWS V14.01,2013-08-10 01:19:00,
2013-08-09 19:24:00,80.8,36.0,30.15,SE,138,8.1,8.3,20,0.00,,---,0.00,VWS V14.01,2013-08-10 01:24:00,
2013-08-09 19:30:00,78.4,35.3,30.15,SE,130,7.6,7.6,21,0.00,,---,0.00,VWS V14.01,2013-08-10 01:30:00,
2013-08-09 19:35:00,78.4,35.3,30.18,SE,129,6.3,6.7,21,0.00,,---,0.00,VWS V14.01,2013-08-10 01:35:00,
2013-08-09 19:41:00,77.2,34.3,30.18,SE,129,5.4,5.4,21,0.00,,---,0.00,VWS V14.01,2013-08-10 01:41:00,
2013-08-09 19:46:00,76.3,34.7,30.18,SE,127,5.4,5.4,22,0.00,,---,0.00,VWS V14.01,2013-08-10 01:46:00,
2013-08-09 19:52:00,75.9,34.4,30.18,SE,127,6.3,6.3,22,0.00,,---,0.00,VWS V14.01,2013-08-10 01:52:00,
2013-08-09 19:57:00,74.7,34.4,30.18,SE,127,6.3,7.2,23,0.00,,---,0.00,VWS V14.01,2013-08-10 01:57:00,
2013-08-09 20:02:00,74.5,34.3,30.18,SE,126,6.3,6.3,23,0.00,,---,0.00,VWS V14.01,2013-08-10 02:02:00,
2013-08-09 20:08:00,73.4,34.5,30.21,SE,126,6.3,6.3,24,0.00,,---,0.00,VWS V14.01,2013-08-10 02:08:00,
2013-08-09 20:09:00,73.4,34.5,30.21,SE,126,6.3,6.3,24,0.00,,---,0.00,VWS V14.01,2013-08-10 02:09:00,
2013-08-09 20:15:00,73.0,36.2,30.21,SE,129,6.7,6.7,26,0.00,,---,0.00,VWS V14.01,2013-08-10 02:15:00,
2013-08-09 20:20:00,72.5,36.7,30.21,SE,130,6.7,6.7,27,0.00,,---,0.00,VWS V14.01,2013-08-10 02:20:00,
2013-08-09 20:25:00,72.3,37.4,30.21,SE,136,7.2,7.2,28,0.00,,---,0.00,VWS V14.01,2013-08-10 02:25:00,
2013-08-09 20:30:00,71.6,37.7,30.18,SE,136,7.2,7.2,29,0.00,,---,0.00,VWS V14.01,2013-08-10 02:30:00,
2013-08-09 20:36:00,71.1,38.9,30.18,SE,136,7.2,7.2,31,0.00,,---,0.00,VWS V14.01,2013-08-10 02:36:00,
2013-08-09 20:41:00,70.7,39.4,30.18,ESE,121,8.3,8.3,32,0.00,,---,0.00,VWS V14.01,2013-08-10 02:41:00,
2013-08-09 20:47:00,70.3,39.1,30.18,ESE,113,7.6,8.3,32,0.00,,---,0.00,VWS V14.01,2013-08-10 02:47:00,
2013-08-09 20:52:00,70.0,38.8,30.21,ESE,119,8.7,8.7,32,0.00,,---,0.00,VWS V14.01,2013-08-10 02:52:00,
2013-08-09 20:58:00,69.6,39.3,30.21,ESE,119,8.7,8.7,33,0.00,,---,0.00,VWS V14.01,2013-08-10 02:58:00,
2013-08-09 21:03:00,69.3,39.0,30.21,ESE,109,8.1,8.7,33,0.00,,---,0.00,VWS V14.01,2013-08-10 03:03:00,
2013-08-09 21:09:00,69.1,38.8,30.21,East,92,5.4,5.4,33,0.00,,---,0.00,VWS V14.01,2013-08-10 03:09:00,
2013-08-09 21:14:00,69.1,38.8,30.21,East,92,5.4,5.4,33,0.00,,---,0.00,VWS V14.01,2013-08-10 03:14:00,
2013-08-09 21:19:00,69.1,39.6,30.21,East,89,5.8,6.3,34,0.00,,---,0.00,VWS V14.01,2013-08-10 03:19:00,
2013-08-09 21:25:00,68.9,39.4,30.21,East,88,5.8,5.8,34,0.00,,---,0.00,VWS V14.01,2013-08-10 03:25:00,
2013-08-09 21:30:00,68.9,39.4,30.21,ESE,102,8.1,8.1,34,0.00,,---,0.00,VWS V14.01,2013-08-10 03:30:00,
2013-08-09 21:36:00,68.7,39.2,30.21,ESE,111,8.7,8.7,34,0.00,,---,0.00,VWS V14.01,2013-08-10 03:36:00,
2013-08-09 21:41:00,68.7,40.0,30.21,ESE,116,8.3,8.7,35,0.00,,---,0.00,VWS V14.01,2013-08-10 03:41:00,
2013-08-09 21:47:00,68.5,39.8,30.21,ESE,117,8.3,8.3,35,0.00,,---,0.00,VWS V14.01,2013-08-10 03:47:00,
2013-08-09 21:53:00,68.5,39.8,30.21,ESE,120,8.3,8.3,35,0.00,,---,0.00,VWS V14.01,2013-08-10 03:53:00,
2013-08-09 21:58:00,68.4,39.7,30.21,SE,131,10.1,10.1,35,0.00,,---,0.00,VWS V14.01,2013-08-10 03:58:00,
2013-08-09 22:01:00,68.4,39.7,30.21,SE,135,10.1,10.1,35,0.00,,---,0.00,VWS V14.01,2013-08-10 04:01:00,
2013-08-09 22:02:00,68.4,39.7,30.21,SE,135,10.1,10.1,35,0.00,,---,0.00,VWS V14.01,2013-08-10 04:02:00,
2013-08-09 22:03:00,68.2,40.9,30.21,SE,135,10.1,10.1,37,0.00,,---,0.00,VWS V14.01,2013-08-10 04:03:00,
2013-08-09 22:04:00,68.2,40.9,30.21,SE,135,10.1,10.1,37,0.00,,---,0.00,VWS V14.01,2013-08-10 04:04:00,
2013-08-09 22:09:00,68.2,40.9,30.21,SE,142,8.7,8.7,37,0.00,,---,0.00,VWS V14.01,2013-08-10 04:09:00,
2013-08-09 22:12:00,68.0,42.1,30.21,SE,137,7.6,7.6,39,0.00,,---,0.00,VWS V14.01,2013-08-10 04:12:00,
2013-08-09 22:18:00,68.0,42.1,30.21,SE,130,7.6,7.6,39,0.00,,---,0.00,VWS V14.01,2013-08-10 04:18:00,
2013-08-09 22:23:00,67.6,41.2,30.21,SE,128,0.0,7.6,38,0.00,,---,0.00,VWS V14.01,2013-08-10 04:23:00,
2013-08-09 22:28:00,67.5,43.0,30.21,North,0,13.2,13.2,41,0.00,,---,0.00,VWS V14.01,2013-08-10 04:28:00,
2013-08-09 22:33:00,67.5,43.0,30.21,North,0,13.2,13.2,41,0.00,,---,0.00,VWS V14.01,2013-08-10 04:33:00,
2013-08-09 22:38:00,66.4,43.8,30.21,NNW,335,5.4,5.4,44,0.00,,---,0.00,VWS V14.01,2013-08-10 04:38:00,
2013-08-09 22:43:00,66.4,43.8,30.21,NNW,335,5.4,5.4,44,0.00,,---,0.00,VWS V14.01,2013-08-10 04:43:00,
2013-08-09 22:49:00,66.7,43.5,30.21,NNE,16,8.3,8.3,43,0.00,,---,0.00,VWS V14.01,2013-08-10 04:49:00,
2013-08-09 22:54:00,66.7,43.5,30.21,North,0,11.0,11.0,43,0.00,,---,0.00,VWS V14.01,2013-08-10 04:54:00,
2013-08-09 23:00:00,66.4,42.6,30.21,NE,35,10.1,11.0,42,0.00,,---,0.00,VWS V14.01,2013-08-10 05:00:00,
2013-08-09 23:05:00,66.0,43.5,30.21,NE,41,10.5,10.5,44,0.00,,---,0.00,VWS V14.01,2013-08-10 05:05:00,
2013-08-09 23:11:00,66.0,43.5,30.21,NE,47,8.1,8.7,44,0.00,,---,0.00,VWS V14.01,2013-08-10 05:11:00,
2013-08-09 23:16:00,64.9,43.1,30.21,NE,43,8.1,8.1,45,0.00,,---,0.00,VWS V14.01,2013-08-10 05:16:00,
2013-08-09 23:22:00,64.0,43.4,30.21,NE,46,8.1,8.1,47,0.00,,---,0.00,VWS V14.01,2013-08-10 05:22:00,
2013-08-09 23:28:00,64.0,43.4,30.21,NE,45,7.6,7.6,47,0.00,,---,0.00,VWS V14.01,2013-08-10 05:28:00,
2013-08-09 23:33:00,63.3,44.4,30.21,NE,53,8.1,8.1,50,0.00,,---,0.00,VWS V14.01,2013-08-10 05:33:00,
2013-08-09 23:39:00,63.1,45.8,30.21,ENE,57,8.1,8.1,53,0.00,,---,0.00,VWS V14.01,2013-08-10 05:39:00,
2013-08-09 23:45:00,63.1,45.8,30.21,NE,54,8.1,8.1,53,0.00,,---,0.00,VWS V14.01,2013-08-10 05:45:00,
2013-08-09 23:50:00,63.1,47.2,30.21,NE,47,7.6,7.6,56,0.00,,---,0.00,VWS V14.01,2013-08-10 05:50:00,
2013-08-09 23:56:00,63.1,46.7,30.21,NNE,28,10.1,10.1,55,0.00,,---,0.00,VWS V14.01,2013-08-10 05:56:00,